Time;durP1;ratioP1;P1;durP2;ratioP2;P2;SDS_P1;SDS_P2;PMS_P1;PMS_P2;Temp;Humidity;BMP_temperature;BMP_pressure;BME280_temperature;BME280_humidity;BME280_pressure;Samples;Min_cycle;Max_cycle;Signal;HPM_P1;HPM_P2
2021/10/17 00:00:12;;;;;;;;;;;7.30;99.90;;;;;;5050585;28;20655;-80
2021/10/17 00:02:39;;;;;;;17.05;8.02;;;7.30;99.90;;;;;;5048930;28;19913;-80
2021/10/17 00:05:06;;;;;;;14.88;6.80;;;7.40;99.90;;;;;;5050121;28;20025;-81
2021/10/17 00:07:32;;;;;;;15.05;7.72;;;7.40;99.90;;;;;;5048678;28;20028;-81
2021/10/17 00:09:57;;;;;;;;;;;7.40;99.90;;;;;;5050488;28;20037;-80
2021/10/17 00:12:23;;;;;;;14.15;6.20;;;7.40;99.90;;;;;;5049606;28;19909;-80
2021/10/17 00:14:49;;;;;;;15.68;5.97;;;7.40;99.90;;;;;;5049964;28;20029;-81
2021/10/17 00:17:14;;;;;;;18.42;6.85;;;7.40;99.90;;;;;;5049983;28;20033;-81
2021/10/17 00:19:40;;;;;;;;;;;7.50;99.90;;;;;;5048954;28;20512;-81
2021/10/17 00:22:06;;;;;;;14.45;6.10;;;7.40;99.90;;;;;;5048799;28;19915;-81
2021/10/17 00:24:31;;;;;;;12.88;6.10;;;7.40;99.90;;;;;;5049731;28;20048;-80
2021/10/17 00:26:57;;;;;;;16.38;7.38;;;7.30;99.90;;;;;;5049674;28;20033;-80
2021/10/17 00:29:22;;;;;;;;;;;7.30;99.90;;;;;;5050074;28;20406;-79
2021/10/17 00:31:48;;;;;;;16.38;8.05;;;7.10;99.90;;;;;;5049802;28;20377;-81
2021/10/17 00:34:14;;;;;;;;;;;7.00;99.90;;;;;;5048543;28;20028;-80
2021/10/17 00:36:39;;;;;;;21.02;9.70;;;6.90;99.90;;;;;;5048389;28;19995;-80
2021/10/17 00:39:05;;;;;;;;;;;6.80;99.90;;;;;;5050130;28;20040;-79
2021/10/17 00:41:31;;;;;;;12.80;7.53;;;6.80;99.90;;;;;;5049659;28;20503;-80
2021/10/17 00:43:58;;;;;;;;;;;6.90;99.90;;;;;;5049931;28;20033;-79
2021/10/17 00:46:23;;;;;;;16.23;6.93;;;6.90;99.90;;;;;;5048214;28;19909;-80
2021/10/17 00:48:49;;;;;;;;;;;6.80;99.90;;;;;;5048607;28;20043;-81
2021/10/17 00:51:15;;;;;;;16.70;8.75;;;6.90;99.90;;;;;;5049364;28;19909;-81
2021/10/17 00:53:42;;;;;;;14.07;7.88;;;6.90;99.90;;;;;;5007553;28;1212458;-79
2021/10/17 00:56:08;;;;;;;14.43;7.60;;;7.00;99.90;;;;;;5050404;28;20043;-81
2021/10/17 00:58:33;;;;;;;;;;;7.00;99.90;;;;;;5051098;28;20382;-82
2021/10/17 01:00:59;;;;;;;12.40;6.78;;;7.10;99.90;;;;;;5050602;28;19943;-81
2021/10/17 01:03:25;;;;;;;12.00;7.22;;;7.10;99.90;;;;;;5049797;28;20037;-81
2021/10/17 01:05:52;;;;;;;;;;;7.20;99.90;;;;;;5049869;28;20033;-79
2021/10/17 01:08:17;;;;;;;12.60;6.60;;;7.20;99.90;;;;;;5050186;28;19934;-80
2021/10/17 01:10:43;;;;;;;;;;;7.20;99.90;;;;;;5049472;28;20059;-80
2021/10/17 01:13:17;;;;;;;12.60;6.63;;;7.20;99.90;;;;;;5048808;28;20293;-79
2021/10/17 01:15:43;;;;;;;16.55;7.10;;;7.20;99.90;;;;;;5048591;28;20063;-80
2021/10/17 01:18:09;;;;;;;13.63;7.50;;;7.20;99.90;;;;;;5048924;28;20029;-78
2021/10/17 01:20:34;;;;;;;;;;;7.10;99.90;;;;;;5050262;28;20032;-80
2021/10/17 01:23:01;;;;;;;12.05;6.30;;;7.00;99.90;;;;;;5049005;28;19915;-80
2021/10/17 01:25:27;;;;;;;10.65;6.32;;;6.90;99.90;;;;;;5049465;28;20111;-80
2021/10/17 01:27:52;;;;;;;;;;;6.90;99.90;;;;;;5048974;28;20120;-81
2021/10/17 01:30:19;;;;;;;11.00;6.18;;;6.80;99.90;;;;;;5048122;28;19908;-80
2021/10/17 01:32:44;;;;;;;12.15;6.22;;;6.70;99.90;;;;;;5048267;28;20028;-79
2021/10/17 01:35:10;;;;;;;;;;;6.60;99.90;;;;;;5048725;28;20025;-80
2021/10/17 01:37:36;;;;;;;16.48;8.13;;;6.50;99.90;;;;;;5047827;28;19991;-79
2021/10/17 01:40:03;;;;;;;12.02;6.07;;;6.40;99.90;;;;;;5049412;28;20037;-80
2021/10/17 01:42:29;;;;;;;13.25;5.88;;;6.40;99.90;;;;;;5047952;28;20033;-79
2021/10/17 01:44:55;;;;;;;;;;;6.40;99.90;;;;;;5048583;28;20041;-78
2021/10/17 01:47:20;;;;;;;12.68;6.30;;;6.40;99.90;;;;;;5048246;28;19908;-80
2021/10/17 01:49:46;;;;;;;;;;;6.30;99.90;;;;;;5049964;28;20029;-79
2021/10/17 01:52:12;;;;;;;8.30;5.85;;;6.30;99.90;;;;;;5048986;28;19959;-79
2021/10/17 01:54:37;;;;;;;;;;;6.30;99.90;;;;;;5049556;28;20442;-80
2021/10/17 01:57:04;;;;;;;9.68;6.43;;;6.20;99.90;;;;;;5049239;28;20013;-79
2021/10/17 01:59:29;;;;;;;11.63;6.80;;;6.20;99.90;;;;;;5047829;28;20033;-80
2021/10/17 02:01:55;;;;;;;;;;;6.10;99.90;;;;;;5048319;28;20028;-80
2021/10/17 02:04:20;;;;;;;17.65;6.68;;;6.10;99.90;;;;;;5048988;28;20007;-80
2021/10/17 02:06:46;;;;;;;11.65;6.80;;;6.10;99.90;;;;;;5049007;28;20033;-79
2021/10/17 02:09:13;;;;;;;14.52;6.95;;;6.00;99.90;;;;;;5049157;28;20112;-80
2021/10/17 02:11:38;;;;;;;16.10;6.85;;;6.00;99.90;;;;;;5049031;28;20104;-80
2021/10/17 02:14:04;;;;;;;;;;;6.00;99.90;;;;;;5049251;28;20430;-81
2021/10/17 02:16:30;;;;;;;13.55;6.13;;;6.00;99.90;;;;;;5048893;28;20466;-80
2021/10/17 02:18:56;;;;;;;15.82;6.70;;;5.90;99.90;;;;;;5048648;28;20107;-80
2021/10/17 02:21:21;;;;;;;;;;;5.90;99.90;;;;;;5047448;28;20037;-81
2021/10/17 02:23:48;;;;;;;14.32;6.88;;;5.90;99.90;;;;;;5047453;28;20436;-80
2021/10/17 02:26:14;;;;;;;17.58;7.75;;;5.80;99.90;;;;;;5047567;28;20021;-81
2021/10/17 02:28:39;;;;;;;;;;;5.70;99.90;;;;;;5049484;28;20047;-81
2021/10/17 02:31:05;;;;;;;15.80;7.70;;;5.70;99.90;;;;;;5047454;28;19931;-80
2021/10/17 02:33:31;;;;;;;;;;;5.70;99.90;;;;;;5049304;28;20017;-80
2021/10/17 02:35:57;;;;;;;13.18;6.90;;;5.70;99.90;;;;;;5047167;28;19908;-81
2021/10/17 02:38:23;;;;;;;;;;;5.60;99.90;;;;;;5049075;28;20029;-80
2021/10/17 02:40:49;;;;;;;15.85;7.28;;;5.60;99.90;;;;;;5048720;28;19909;-80
2021/10/17 02:43:14;;;;;;;;;;;5.60;99.90;;;;;;5049099;28;20413;-79
2021/10/17 02:45:40;;;;;;;10.38;6.13;;;5.60;99.90;;;;;;5048494;28;19909;-79
2021/10/17 02:48:05;;;;;;;;;;;5.60;99.90;;;;;;5047745;28;20029;-79
2021/10/17 02:50:31;;;;;;;10.73;6.40;;;5.70;99.90;;;;;;5046952;28;19908;-80
2021/10/17 02:52:57;;;;;;;;;;;5.70;99.90;;;;;;5048302;28;20453;-79
2021/10/17 02:55:22;;;;;;;13.27;7.25;;;5.70;99.90;;;;;;5048431;28;19923;-79
2021/10/17 02:57:48;;;;;;;17.17;7.70;;;5.70;99.90;;;;;;5048356;28;20497;-80
2021/10/17 03:00:14;;;;;;;;;;;5.70;99.90;;;;;;5048500;28;20039;-80
2021/10/17 03:02:39;;;;;;;15.20;6.93;;;5.80;99.90;;;;;;5048330;28;19912;-79
2021/10/17 03:05:05;;;;;;;;;;;5.80;99.90;;;;;;5048651;28;20037;-79
2021/10/17 03:07:31;;;;;;;15.10;6.85;;;5.90;99.90;;;;;;5048340;28;19905;-79
2021/10/17 03:09:57;;;;;;;;;;;5.90;99.90;;;;;;5047454;28;20075;-80
2021/10/17 03:12:22;;;;;;;14.65;6.65;;;5.90;99.90;;;;;;5047027;28;19913;-80
2021/10/17 03:14:48;;;;;;;;;;;6.00;99.90;;;;;;5048709;28;20033;-79
2021/10/17 03:17:13;;;;;;;12.48;6.53;;;6.00;99.90;;;;;;5048491;28;19912;-80
2021/10/17 03:19:39;;;;;;;15.68;6.57;;;6.00;99.90;;;;;;5048408;28;20102;-81
2021/10/17 03:22:05;;;;;;;14.32;6.38;;;6.10;99.90;;;;;;5046932;28;20421;-81
2021/10/17 03:24:30;;;;;;;;;;;6.20;99.90;;;;;;5048614;28;20468;-80
2021/10/17 03:26:56;;;;;;;10.05;6.13;;;6.10;99.90;;;;;;5046753;28;20428;-79
2021/10/17 03:29:21;;;;;;;;;;;6.20;99.90;;;;;;5048509;28;20059;-80
2021/10/17 03:31:48;;;;;;;13.23;6.00;;;6.20;99.90;;;;;;5047988;28;19931;-82
2021/10/17 03:34:14;;;;;;;15.43;5.82;;;6.20;99.90;;;;;;5048103;28;20022;-81
2021/10/17 03:36:41;;;;;;;;;;;6.20;99.90;;;;;;5047238;28;20029;-81
2021/10/17 03:39:06;;;;;;;12.43;6.57;;;6.20;99.90;;;;;;5048157;28;19916;-81
2021/10/17 03:41:32;;;;;;;;;;;6.20;99.90;;;;;;5048409;28;20028;-80
2021/10/17 03:43:58;;;;;;;15.48;6.45;;;6.20;99.90;;;;;;5047807;28;20385;-79
2021/10/17 03:46:23;;;;;;;;;;;6.30;99.90;;;;;;5048213;28;20021;-79
2021/10/17 03:48:49;;;;;;;24.63;11.85;;;6.20;99.90;;;;;;5051582;28;19908;-79
2021/10/17 03:51:16;;;;;;;;;;;6.20;99.90;;;;;;5051926;28;20090;-79
2021/10/17 03:53:41;;;;;;;16.73;10.98;;;6.10;99.90;;;;;;5051648;28;19922;-79
2021/10/17 03:56:08;;;;;;;;;;;6.10;99.90;;;;;;5051829;28;20029;-80
2021/10/17 03:58:34;;;;;;;17.25;10.80;;;6.10;99.90;;;;;;5051361;28;19956;-79
2021/10/17 04:01:00;;;;;;;19.95;10.23;;;6.00;99.90;;;;;;5049921;28;20126;-79
2021/10/17 04:03:25;;;;;;;;;;;6.00;99.90;;;;;;5050244;28;20463;-79
2021/10/17 04:05:51;;;;;;;16.60;10.48;;;6.00;99.90;;;;;;5051304;28;20380;-80
2021/10/17 04:08:17;;;;;;;;;;;6.00;99.90;;;;;;5051677;28;20520;-80
2021/10/17 04:10:42;;;;;;;13.35;8.52;;;6.00;99.90;;;;;;5050167;28;20419;-80
2021/10/17 04:13:08;;;;;;;;;;;6.10;99.90;;;;;;5051947;28;20505;-80
2021/10/17 04:15:36;;;;;;;16.02;8.65;;;6.10;99.90;;;;;;5050845;28;19908;-83
2021/10/17 04:18:02;;;;;;;17.52;8.57;;;6.10;99.90;;;;;;5051029;28;20021;-80
2021/10/17 04:20:28;;;;;;;15.18;8.32;;;6.10;99.90;;;;;;5050919;28;20025;-81
2021/10/17 04:22:54;;;;;;;;;;;6.10;99.90;;;;;;5050925;28;20066;-80
2021/10/17 04:25:19;;;;;;;16.25;7.97;;;6.10;99.90;;;;;;5049707;28;19905;-81
2021/10/17 04:27:45;;;;;;;;;;;6.00;99.90;;;;;;5051361;28;20039;-80
2021/10/17 04:30:11;;;;;;;13.32;7.22;;;6.00;99.90;;;;;;5050688;28;19908;-81
2021/10/17 04:32:37;;;;;;;12.98;6.97;;;6.00;99.90;;;;;;5050894;28;20029;-80
2021/10/17 04:35:02;;;;;;;;;;;6.00;99.90;;;;;;5051280;28;20228;-81
2021/10/17 04:37:29;;;;;;;15.18;6.80;;;6.00;99.90;;;;;;5050803;28;19940;-78
2021/10/17 04:39:55;;;;;;;9.50;5.88;;;6.10;99.90;;;;;;5049157;28;20029;-78
2021/10/17 04:42:21;;;;;;;;;;;6.00;99.90;;;;;;5051047;28;20040;-81
2021/10/17 04:44:46;;;;;;;14.68;7.22;;;6.10;99.90;;;;;;5050619;28;19917;-81
2021/10/17 04:47:12;;;;;;;;;;;6.10;99.90;;;;;;5051085;28;20024;-80
2021/10/17 04:49:37;;;;;;;14.07;6.88;;;6.20;99.90;;;;;;5050445;28;20373;-81
2021/10/17 04:52:03;;;;;;;21.08;8.20;;;6.20;99.90;;;;;;5048952;28;20082;-81
2021/10/17 04:54:29;;;;;;;10.77;6.57;;;6.20;99.90;;;;;;5049879;28;20045;-81
2021/10/17 04:56:54;;;;;;;;;;;6.20;99.90;;;;;;5050358;28;20106;-80
2021/10/17 04:59:21;;;;;;;20.00;8.77;;;6.20;99.90;;;;;;5048009;28;19950;-80
2021/10/17 05:01:48;;;;;;;15.13;8.30;;;6.20;99.90;;;;;;5050300;28;20025;-80
2021/10/17 05:04:15;;;;;;;20.10;10.05;;;6.30;99.90;;;;;;5050081;28;20477;-80
2021/10/17 05:06:40;;;;;;;19.60;10.20;;;6.30;99.90;;;;;;5050297;28;20390;-80
2021/10/17 05:09:06;;;;;;;;;;;6.30;99.90;;;;;;5050728;28;20086;-79
2021/10/17 05:11:31;;;;;;;16.58;8.35;;;6.30;99.90;;;;;;5050063;28;19921;-80
2021/10/17 05:13:57;;;;;;;;;;;6.20;99.90;;;;;;5050416;28;20025;-80
2021/10/17 05:16:23;;;;;;;16.02;8.00;;;6.30;99.90;;;;;;5049967;28;19955;-81
2021/10/17 05:18:48;;;;;;;;;;;6.30;99.90;;;;;;5050133;28;20478;-80
2021/10/17 05:21:14;;;;;;;12.65;6.68;;;6.30;99.90;;;;;;5049952;28;19951;-79
2021/10/17 05:23:39;;;;;;;;;;;6.30;99.90;;;;;;5050382;28;20041;-79
2021/10/17 05:26:05;;;;;;;19.10;7.60;;;6.20;99.90;;;;;;5049887;28;20397;-80
2021/10/17 05:28:31;;;;;;;21.92;9.73;;;6.30;99.90;;;;;;5049726;28;20097;-80
2021/10/17 05:31:00;;;;;;;19.52;10.52;;;6.30;99.90;;;;;;5049443;28;20061;-80
2021/10/17 05:33:27;;;;;;;26.92;14.48;;;6.30;99.90;;;;;;5049645;28;20035;-80
2021/10/17 05:35:53;;;;;;;26.45;15.35;;;6.40;99.90;;;;;;5049747;28;20024;-79
2021/10/17 05:38:18;;;;;;;;;;;6.50;99.90;;;;;;5049731;28;20037;-79
2021/10/17 05:40:44;;;;;;;36.30;18.95;;;6.50;99.90;;;;;;5049445;28;19911;-79
2021/10/17 05:43:10;;;;;;;;;;;6.60;99.90;;;;;;5049885;28;20112;-80
2021/10/17 05:45:36;;;;;;;33.25;18.42;;;6.60;99.90;;;;;;5049410;28;20324;-80
2021/10/17 05:48:01;;;;;;;;;;;6.70;99.90;;;;;;5049804;28;20383;-78
2021/10/17 05:50:27;;;;;;;31.23;18.55;;;6.80;99.90;;;;;;5048942;28;19957;-80
2021/10/17 05:52:52;;;;;;;;;;;6.80;99.90;;;;;;5048218;28;20781;-80
2021/10/17 05:55:18;;;;;;;33.05;19.20;;;6.90;99.90;;;;;;5049166;28;19913;-80
2021/10/17 05:57:44;;;;;;;;;;;7.00;99.90;;;;;;5049446;28;20057;-80
2021/10/17 06:00:10;;;;;;;25.58;14.20;;;7.10;99.90;;;;;;5048919;28;19904;-78
2021/10/17 06:02:35;;;;;;;29.77;15.25;;;7.10;99.90;;;;;;5048890;28;20029;-81
2021/10/17 06:05:01;;;;;;;;;;;7.20;99.90;;;;;;5048245;28;20559;-79
2021/10/17 06:07:26;;;;;;;23.33;11.82;;;7.20;99.90;;;;;;5049227;28;20472;-79
2021/10/17 06:09:52;;;;;;;;;;;7.30;99.90;;;;;;5047901;28;20379;-79
2021/10/17 06:12:18;;;;;;;68.35;17.90;;;7.40;99.90;;;;;;5048716;28;20006;-80
2021/10/17 06:14:43;;;;;;;;;;;7.50;99.90;;;;;;5047989;28;20065;-81
2021/10/17 06:17:09;;;;;;;90.50;16.83;;;7.70;99.90;;;;;;5047744;28;19909;-80
2021/10/17 06:19:35;;;;;;;68.93;15.55;;;7.70;99.90;;;;;;5048921;28;20033;-80
2021/10/17 06:22:03;;;;;;;;;;;7.70;99.90;;;;;;5048989;28;20037;-80
2021/10/17 06:24:34;;;;;;;21.17;11.35;;;7.90;99.90;;;;;;5048728;28;19962;-80
2021/10/17 06:27:00;;;;;;;27.33;13.27;;;8.30;99.90;;;;;;5048578;28;20029;-78
2021/10/17 06:29:26;;;;;;;;;;;8.80;99.90;;;;;;5049091;28;20036;-80
2021/10/17 06:31:51;;;;;;;22.38;13.90;;;9.20;99.90;;;;;;5048325;28;20285;-79
2021/10/17 06:34:17;;;;;;;;;;;9.20;99.90;;;;;;5048960;28;20504;-80
2021/10/17 06:36:43;;;;;;;28.38;15.13;;;9.50;99.90;;;;;;5048543;28;19904;-80
2021/10/17 06:39:09;;;;;;;;;;;10.10;99.90;;;;;;5049024;28;20077;-81
2021/10/17 06:41:35;;;;;;;22.30;13.95;;;10.70;99.90;;;;;;5047186;28;20001;-80
2021/10/17 06:44:01;;;;;;;;;;;11.20;99.90;;;;;;5048837;28;20037;-80
2021/10/17 06:46:27;;;;;;;20.80;11.65;;;11.90;98.80;;;;;;5048142;28;19919;-80
2021/10/17 06:48:52;;;;;;;;;;;12.50;97.90;;;;;;5047571;28;20033;-80
2021/10/17 06:51:18;;;;;;;40.15;14.45;;;12.90;95.80;;;;;;5046837;28;19909;-80
2021/10/17 06:53:44;;;;;;;;;;;13.30;93.70;;;;;;5048674;28;20167;-80
2021/10/17 06:56:09;;;;;;;21.40;7.20;;;13.60;92.20;;;;;;5048438;28;19921;-80
2021/10/17 06:58:35;;;;;;;;;;;13.60;91.20;;;;;;5048546;28;20040;-81
2021/10/17 07:01:00;;;;;;;27.05;9.00;;;13.60;90.70;;;;;;5048183;28;19923;-80
2021/10/17 07:03:26;;;;;;;;;;;13.70;90.90;;;;;;5048535;28;20063;-81
2021/10/17 07:05:52;;;;;;;13.75;6.43;;;13.60;89.90;;;;;;5048323;28;20293;-81
2021/10/17 07:08:17;;;;;;;;;;;13.50;89.90;;;;;;5048384;28;20021;-81
2021/10/17 07:10:43;;;;;;;15.93;7.55;;;13.40;88.20;;;;;;5048108;28;20365;-81
2021/10/17 07:13:08;;;;;;;15.48;7.38;;;13.20;90.00;;;;;;5048105;28;20041;-80
2021/10/17 07:15:34;;;;;;;;;;;13.00;88.60;;;;;;5048517;28;20094;-80
2021/10/17 07:17:59;;;;;;;13.38;5.90;;;12.80;89.60;;;;;;5048043;28;19913;-80
2021/10/17 07:20:25;;;;;;;13.10;5.25;;;12.70;89.00;;;;;;5047992;28;20033;-80
2021/10/17 07:22:51;;;;;;;;;;;12.80;87.20;;;;;;5052013;28;20037;-81
2021/10/17 07:25:16;;;;;;;13.73;5.47;;;12.60;85.40;;;;;;5051856;28;20011;-80
2021/10/17 07:27:42;;;;;;;;;;;12.60;87.00;;;;;;5052307;28;20052;-81
2021/10/17 07:30:08;;;;;;;13.15;5.72;;;12.60;83.40;;;;;;5050485;28;19908;-80
2021/10/17 07:32:34;;;;;;;;;;;12.30;83.10;;;;;;5050636;28;20596;-80
2021/10/17 07:35:00;;;;;;;11.90;5.30;;;12.30;86.30;;;;;;5051889;28;19916;-80
2021/10/17 07:37:25;;;;;;;;;;;12.40;87.00;;;;;;5052165;28;20032;-80
2021/10/17 07:39:51;;;;;;;9.68;4.95;;;12.40;85.80;;;;;;5051674;28;19970;-79
2021/10/17 07:42:16;;;;;;;;;;;12.40;87.10;;;;;;5050583;28;20625;-79
2021/10/17 07:44:42;;;;;;;11.90;4.43;;;12.50;86.10;;;;;;5051498;28;19964;-80
2021/10/17 07:47:08;;;;;;;;;;;12.60;85.90;;;;;;5051937;28;20425;-79
2021/10/17 07:49:33;;;;;;;14.05;5.10;;;12.60;85.00;;;;;;5050224;28;20798;-80
2021/10/17 07:51:59;;;;;;;;;;;12.80;84.80;;;;;;5051912;28;20418;-81
2021/10/17 07:54:24;;;;;;;15.63;5.47;;;12.80;84.40;;;;;;5051467;28;19917;-80
2021/10/17 07:56:50;;;;;;;;;;;12.90;81.90;;;;;;5050457;28;20037;-80
2021/10/17 07:59:16;;;;;;;11.55;5.00;;;12.90;80.60;;;;;;5051325;28;20457;-79
2021/10/17 08:01:41;;;;;;;;;;;13.00;81.30;;;;;;5051753;28;20115;-78
2021/10/17 08:04:07;;;;;;;10.02;5.13;;;13.30;81.50;;;;;;5051058;28;19955;-78
2021/10/17 08:06:33;;;;;;;11.98;3.97;;;13.60;80.70;;;;;;5051052;28;20512;-78
2021/10/17 08:08:59;;;;;;;8.82;4.07;;;14.00;78.70;;;;;;5051331;28;20043;-77
2021/10/17 08:11:24;;;;;;;11.70;3.92;;;14.40;76.80;;;;;;5050958;28;20048;-78
2021/10/17 08:13:50;;;;;;;11.77;3.35;;;14.80;75.30;;;;;;5051178;28;20090;-78
2021/10/17 08:16:16;;;;;;;14.75;5.40;;;15.30;70.70;;;;;;5051043;28;20498;-78
2021/10/17 08:18:41;;;;;;;20.92;5.32;;;16.10;68.00;;;;;;5051220;28;20040;-78
2021/10/17 08:21:07;;;;;;;22.83;4.18;;;16.90;63.80;;;;;;5050905;28;20021;-78
2021/10/17 08:23:33;;;;;;;13.15;3.47;;;17.50;60.50;;;;;;5050855;28;20040;-77
2021/10/17 08:25:59;;;;;;;10.20;3.45;;;18.00;59.00;;;;;;5050917;28;20524;-77
2021/10/17 08:28:24;;;;;;;18.00;3.97;;;18.40;56.40;;;;;;5050761;28;20105;-78
2021/10/17 08:30:50;;;;;;;9.20;3.67;;;18.90;53.90;;;;;;5049590;28;20029;-77
2021/10/17 08:33:17;;;;;;;10.88;3.70;;;19.30;52.60;;;;;;5050689;28;20029;-79
2021/10/17 08:35:44;;;;;;;11.98;3.47;;;19.70;51.10;;;;;;5050841;28;20130;-78
2021/10/17 08:38:10;;;;;;;14.95;4.00;;;20.00;50.60;;;;;;5049936;28;20603;-77
2021/10/17 08:40:36;;;;;;;11.20;4.30;;;20.30;48.60;;;;;;5048888;28;20032;-77
2021/10/17 08:43:02;;;;;;;8.05;3.83;;;20.60;46.70;;;;;;5050451;28;20108;-77
2021/10/17 08:45:28;;;;;;;9.70;4.00;;;20.70;47.20;;;;;;5050387;28;20116;-77
2021/10/17 08:47:54;;;;;;;10.00;4.65;;;21.00;45.20;;;;;;5050367;28;20100;-77
2021/10/17 08:50:20;;;;;;;9.57;4.43;;;20.80;45.30;;;;;;5050116;28;20033;-78
2021/10/17 08:52:46;;;;;;;10.63;5.03;;;20.90;45.00;;;;;;5050333;28;20079;-77
2021/10/17 08:55:12;;;;;;;12.07;4.70;;;21.00;43.90;;;;;;5048963;28;20041;-77
2021/10/17 08:57:41;;;;;;;6.82;3.15;;;20.70;44.40;;;;;;5050320;28;20090;-79
2021/10/17 09:00:25;;;;;;;19.42;3.08;;;20.90;44.50;;;;;;5049032;28;20033;-78
2021/10/17 09:02:52;;;;;;;10.18;3.78;;;21.10;43.40;;;;;;5050056;28;20029;-78
2021/10/17 09:05:18;;;;;;;11.52;4.22;;;21.30;43.50;;;;;;5049965;28;20470;-78
2021/10/17 09:07:52;;;;;;;7.32;3.80;;;21.70;43.00;;;;;;5050035;28;20029;-78
2021/10/17 09:10:18;;;;;;;7.57;3.83;;;21.60;43.10;;;;;;5049831;28;20060;-77
2021/10/17 09:12:46;;;;;;;10.38;3.95;;;21.60;43.40;;;;;;5050020;28;20025;-78
2021/10/17 09:15:20;;;;;;;12.52;3.28;;;21.80;42.20;;;;;;5049979;28;20029;-78
2021/10/17 09:18:10;;;;;;;10.95;3.65;;;21.90;42.20;;;;;;5049862;28;20099;-78
2021/10/17 09:20:49;;;;;;;11.50;3.40;;;22.00;41.20;;;;;;5049609;28;20119;-77
2021/10/17 09:23:29;;;;;;;8.50;3.42;;;22.20;41.10;;;;;;5049660;28;20033;-78
2021/10/17 09:25:58;;;;;;;8.63;3.17;;;22.30;41.40;;;;;;5047875;28;20071;-77
2021/10/17 09:28:28;;;;;;;10.55;3.40;;;22.50;40.70;;;;;;5049035;28;20498;-76
2021/10/17 09:31:03;;;;;;;6.93;3.20;;;22.40;40.90;;;;;;5048605;28;20037;-78
2021/10/17 09:33:29;;;;;;;9.60;3.45;;;22.50;40.80;;;;;;5049450;28;20123;-79
2021/10/17 09:35:55;;;;;;;10.13;3.75;;;22.70;40.40;;;;;;5049560;28;20033;-78
2021/10/17 09:38:33;;;;;;;8.27;3.75;;;22.50;39.80;;;;;;5047977;28;20078;-79
2021/10/17 09:41:13;;;;;;;10.95;3.70;;;22.30;40.10;;;;;;5049311;28;20036;-80
2021/10/17 09:43:41;;;;;;;8.07;3.88;;;22.10;40.00;;;;;;5047246;28;20060;-79
2021/10/17 09:46:11;;;;;;;7.50;3.50;;;21.80;40.80;;;;;;5049433;28;20462;-79
2021/10/17 09:48:37;;;;;;;8.27;3.38;;;21.80;40.70;;;;;;5049367;28;20366;-77
2021/10/17 09:51:08;;;;;;;9.35;3.22;;;21.90;40.40;;;;;;5049237;28;20029;-79
2021/10/17 09:53:52;;;;;;;6.63;2.72;;;22.00;40.40;;;;;;5048981;28;20048;-79
2021/10/17 09:56:32;;;;;;;7.85;3.70;;;21.80;40.40;;;;;;5048837;28;20090;-79
2021/10/17 09:59:10;;;;;;;8.13;3.58;;;21.40;41.00;;;;;;5048875;28;20033;-79
2021/10/17 10:01:37;;;;;;;10.07;3.63;;;20.60;41.70;;;;;;5047681;28;20033;-77
2021/10/17 10:04:05;;;;;;;8.35;3.45;;;19.80;42.80;;;;;;5047960;28;20049;-77
2021/10/17 10:06:31;;;;;;;6.63;4.07;;;19.40;44.60;;;;;;5047843;28;20037;-77
2021/10/17 10:09:02;;;;;;;11.68;3.90;;;18.90;45.50;;;;;;5046508;28;20037;-77
2021/10/17 10:11:30;;;;;;;9.13;3.58;;;18.40;45.10;;;;;;5046563;28;20029;-77
2021/10/17 10:13:57;;;;;;;9.32;3.60;;;18.00;46.70;;;;;;5047562;28;20090;-78
2021/10/17 10:16:26;;;;;;;7.53;3.58;;;17.50;48.00;;;;;;5047736;28;20468;-77
2021/10/17 10:18:56;;;;;;;6.72;3.13;;;17.00;48.40;;;;;;5046132;28;20044;-76
2021/10/17 10:21:22;;;;;;;8.18;3.70;;;16.80;49.50;;;;;;5044076;28;20045;-78
2021/10/17 10:23:54;;;;;;;8.90;3.55;;;16.70;50.80;;;;;;5047330;28;20041;-78
2021/10/17 10:26:22;;;;;;;10.38;3.35;;;16.60;51.20;;;;;;5047317;28;20486;-78
2021/10/17 10:28:50;;;;;;;7.60;3.35;;;16.50;51.80;;;;;;5047505;28;20064;-78
2021/10/17 10:31:40;;;;;;;9.77;3.50;;;16.40;52.90;;;;;;5048595;28;20032;-78
2021/10/17 10:34:33;;;;;;;7.97;3.17;;;16.40;52.20;;;;;;5048435;28;20557;-77
2021/10/17 10:37:14;;;;;;;13.48;3.60;;;16.20;51.40;;;;;;5046979;28;20029;-78
2021/10/17 10:40:02;;;;;;;7.88;3.55;;;16.00;52.60;;;;;;5042623;28;20025;-78
2021/10/17 10:42:37;;;;;;;9.25;3.03;;;16.00;53.30;;;;;;5048503;28;20029;-78
2021/10/17 10:45:21;;;;;;;9.05;3.47;;;15.90;53.70;;;;;;5043466;28;20036;-77
2021/10/17 10:47:48;;;;;;;7.85;3.88;;;15.90;54.10;;;;;;5061092;28;20057;-77
2021/10/17 10:50:15;;;;;;;7.63;3.33;;;15.90;54.30;;;;;;5047210;28;20047;-78
2021/10/17 10:52:43;;;;;;;9.45;4.05;;;15.90;53.90;;;;;;5043394;28;20040;-77
2021/10/17 10:55:33;;;;;;;6.65;3.03;;;15.80;54.20;;;;;;5045486;28;20048;-77
2021/10/17 10:58:20;;;;;;;7.97;3.70;;;15.80;54.40;;;;;;5051360;28;20045;-76
2021/10/17 11:00:45;;;;;;;11.02;4.68;;;15.70;54.80;;;;;;5050661;28;20041;-77
2021/10/17 11:03:16;;;;;;;8.60;3.92;;;15.70;55.20;;;;;;5049893;28;20102;-77
2021/10/17 11:06:07;;;;;;;10.25;3.47;;;15.70;55.60;;;;;;5049662;28;20587;-77
2021/10/17 11:08:38;;;;;;;8.98;3.70;;;15.60;55.40;;;;;;5050033;28;20033;-78
2021/10/17 11:11:05;;;;;;;13.68;4.25;;;15.60;55.60;;;;;;5049756;28;20032;-77
2021/10/17 11:13:43;;;;;;;9.95;4.13;;;15.60;56.10;;;;;;5049396;28;20030;-77
2021/10/17 11:16:29;;;;;;;9.75;3.80;;;15.60;56.10;;;;;;5051086;28;20048;-77
2021/10/17 11:18:58;;;;;;;12.55;3.90;;;15.60;56.60;;;;;;5047134;28;20498;-77
2021/10/17 11:21:30;;;;;;;8.23;3.60;;;15.60;56.30;;;;;;5047752;28;20049;-77
2021/10/17 11:23:56;;;;;;;9.35;4.25;;;15.60;55.30;;;;;;5043450;28;20032;-77
2021/10/17 11:26:22;;;;;;;;;;;15.40;55.20;;;;;;5050464;28;20576;-77
2021/10/17 11:28:50;;;;;;;8.40;3.50;;;15.40;56.50;;;;;;5049533;28;19928;-77
2021/10/17 11:31:20;;;;;;;8.63;4.20;;;15.50;56.90;;;;;;5046810;28;20113;-77
2021/10/17 11:33:46;;;;;;;7.15;3.40;;;15.50;56.40;;;;;;5048747;28;20044;-77
2021/10/17 11:36:14;;;;;;;7.63;4.00;;;15.50;56.70;;;;;;5048690;28;20063;-77
2021/10/17 11:38:41;;;;;;;8.32;3.28;;;15.60;56.70;;;;;;5048683;28;20044;-78
2021/10/17 11:41:09;;;;;;;12.18;4.15;;;15.60;56.20;;;;;;5050680;28;20063;-78
2021/10/17 11:43:55;;;;;;;9.85;4.28;;;15.50;55.80;;;;;;5050633;28;20044;-77
2021/10/17 11:46:30;;;;;;;8.73;4.33;;;15.50;57.20;;;;;;5047622;28;20038;-78
2021/10/17 11:49:03;;;;;;;7.20;3.53;;;15.50;56.60;;;;;;5046727;28;20509;-79
2021/10/17 11:51:29;;;;;;;9.25;3.80;;;15.60;56.70;;;;;;5049092;28;20106;-77
2021/10/17 11:53:56;;;;;;;;;;;15.60;56.40;;;;;;5049077;28;20065;-78
2021/10/17 11:56:22;;;;;;;;;;;15.60;56.40;;;;;;5047397;28;19917;-78
2021/10/17 11:58:48;;;;;;;8.82;3.92;;;15.70;56.80;;;;;;5049672;28;19982;-78
2021/10/17 12:01:14;;;;;;;;;;;15.70;57.20;;;;;;5050868;28;20082;-78
2021/10/17 12:03:49;;;;;;;7.75;3.92;;;15.70;56.90;;;;;;5049029;28;19921;-78
2021/10/17 12:06:18;;;;;;;13.25;5.05;;;15.80;57.10;;;;;;5048490;28;20045;-77
2021/10/17 12:09:18;;;;;;;9.95;4.70;;;15.80;56.90;;;;;;5049800;28;20032;-78
2021/10/17 12:11:44;;;;;;;10.50;5.05;;;15.90;56.50;;;;;;5038024;28;20052;-78
2021/10/17 12:14:09;;;;;;;;;;;15.90;56.80;;;;;;5049358;28;20045;-78
2021/10/17 12:16:37;;;;;;;11.80;5.10;;;16.00;56.90;;;;;;5045128;28;20373;-77
2021/10/17 12:19:05;;;;;;;10.07;3.85;;;16.00;56.70;;;;;;5048196;28;20032;-77
2021/10/17 12:21:49;;;;;;;10.68;4.50;;;15.80;56.50;;;;;;5048113;28;20122;-78
2021/10/17 12:24:15;;;;;;;11.93;4.50;;;15.90;57.10;;;;;;5044573;28;20081;-78
2021/10/17 12:26:54;;;;;;;;;;;15.80;56.80;;;;;;5046101;28;20060;-78
2021/10/17 12:29:22;;;;;;;10.98;4.65;;;15.70;57.00;;;;;;5049613;28;19916;-78
2021/10/17 12:31:53;;;;;;;11.82;4.68;;;15.60;56.70;;;;;;5047775;28;20485;-78
2021/10/17 12:34:41;;;;;;;10.75;3.83;;;15.60;57.10;;;;;;5045246;28;20071;-78
2021/10/17 12:37:08;;;;;;;11.60;5.03;;;15.60;57.90;;;;;;5045848;28;20056;-77
2021/10/17 12:39:34;;;;;;;12.30;5.18;;;15.70;57.80;;;;;;5047947;28;20429;-78
2021/10/17 12:42:00;;;;;;;;;;;15.90;57.30;;;;;;5048584;28;20044;-78
2021/10/17 12:44:26;;;;;;;11.50;4.97;;;16.00;56.90;;;;;;5048134;28;19917;-78
2021/10/17 12:47:06;;;;;;;12.05;4.70;;;16.00;56.90;;;;;;5046211;28;20021;-78
2021/10/17 12:49:39;;;;;;;8.38;4.55;;;16.10;56.70;;;;;;5048169;28;20053;-78
2021/10/17 12:52:09;;;;;;;8.02;4.13;;;16.20;56.90;;;;;;5047115;28;20049;-78
2021/10/17 12:54:36;;;;;;;10.00;4.82;;;16.20;56.40;;;;;;5047391;28;20045;-78
2021/10/17 12:57:09;;;;;;;9.50;4.07;;;16.20;56.60;;;;;;5047996;28;20509;-78
2021/10/17 12:59:51;;;;;;;9.27;5.07;;;16.30;56.70;;;;;;5047898;28;20037;-78
2021/10/17 13:02:17;;;;;;;16.20;5.95;;;16.40;56.10;;;;;;5045091;28;20572;-78
2021/10/17 13:04:51;;;;;;;12.60;5.28;;;16.30;55.50;;;;;;5045684;28;20036;-77
2021/10/17 13:07:32;;;;;;;8.80;3.88;;;16.30;55.40;;;;;;5047489;28;20049;-78
2021/10/17 13:10:08;;;;;;;8.82;4.20;;;16.20;55.50;;;;;;5046636;28;20111;-77